sensor_id;sensor_type;location;lat;lon;timestamp;pressure;altitude;pressure_sealevel;temperature;humidity
61898;BME280;47850;50.274;18.908;2022-10-16T00:00:42;98315.83;;;11.93;89.25
61898;BME280;47850;50.274;18.908;2022-10-16T00:03:26;98317.13;;;11.93;89.38
61898;BME280;47850;50.274;18.908;2022-10-16T00:06:11;98319.00;;;11.93;89.80
61898;BME280;47850;50.274;18.908;2022-10-16T00:08:55;98320.70;;;11.94;89.67
61898;BME280;47850;50.274;18.908;2022-10-16T00:11:39;98317.30;;;11.93;89.83
61898;BME280;47850;50.274;18.908;2022-10-16T00:14:24;98316.66;;;11.93;89.92
61898;BME280;47850;50.274;18.908;2022-10-16T00:17:08;98316.23;;;11.92;89.77
61898;BME280;47850;50.274;18.908;2022-10-16T00:19:52;98319.61;;;11.91;89.99
61898;BME280;47850;50.274;18.908;2022-10-16T00:22:36;98316.29;;;11.89;89.84
61898;BME280;47850;50.274;18.908;2022-10-16T00:25:20;98319.59;;;11.89;89.97
61898;BME280;47850;50.274;18.908;2022-10-16T00:28:04;98318.98;;;11.85;89.97
61898;BME280;47850;50.274;18.908;2022-10-16T00:30:48;98319.22;;;11.81;90.28
61898;BME280;47850;50.274;18.908;2022-10-16T00:33:33;98318.96;;;11.78;90.22
61898;BME280;47850;50.274;18.908;2022-10-16T00:36:19;98317.71;;;11.74;90.50
61898;BME280;47850;50.274;18.908;2022-10-16T00:39:03;98312.77;;;11.70;90.56
61898;BME280;47850;50.274;18.908;2022-10-16T00:41:47;98318.13;;;11.65;90.77
61898;BME280;47850;50.274;18.908;2022-10-16T00:44:42;98317.60;;;11.62;90.95
61898;BME280;47850;50.274;18.908;2022-10-16T00:47:31;98316.92;;;11.59;91.12
61898;BME280;47850;50.274;18.908;2022-10-16T00:50:30;98316.15;;;11.56;91.60
61898;BME280;47850;50.274;18.908;2022-10-16T00:53:15;98317.93;;;11.54;91.60
61898;BME280;47850;50.274;18.908;2022-10-16T00:56:00;98321.30;;;11.51;91.87
61898;BME280;47850;50.274;18.908;2022-10-16T00:58:45;98318.24;;;11.48;92.17
61898;BME280;47850;50.274;18.908;2022-10-16T01:01:29;98320.35;;;11.46;92.17
61898;BME280;47850;50.274;18.908;2022-10-16T01:04:13;98322.07;;;11.45;92.40
61898;BME280;47850;50.274;18.908;2022-10-16T01:07:02;98323.71;;;11.43;92.62
61898;BME280;47850;50.274;18.908;2022-10-16T01:21:13;98322.11;;;11.41;93.50
61898;BME280;47850;50.274;18.908;2022-10-16T01:29:54;98321.68;;;11.37;93.37
61898;BME280;47850;50.274;18.908;2022-10-16T01:32:41;98326.90;;;11.35;93.31
61898;BME280;47850;50.274;18.908;2022-10-16T01:38:21;98324.23;;;11.32;93.72
61898;BME280;47850;50.274;18.908;2022-10-16T01:41:13;98326.15;;;11.30;93.79
61898;BME280;47850;50.274;18.908;2022-10-16T01:46:45;98330.00;;;11.29;93.89
61898;BME280;47850;50.274;18.908;2022-10-16T01:49:31;98333.36;;;11.27;93.96
61898;BME280;47850;50.274;18.908;2022-10-16T01:52:17;98328.72;;;11.26;94.09
61898;BME280;47850;50.274;18.908;2022-10-16T01:55:03;98330.34;;;11.24;94.15
61898;BME280;47850;50.274;18.908;2022-10-16T01:57:50;98331.63;;;11.22;94.21
61898;BME280;47850;50.274;18.908;2022-10-16T02:00:37;98335.16;;;11.21;94.43
61898;BME280;47850;50.274;18.908;2022-10-16T02:03:21;98335.27;;;11.19;94.22
61898;BME280;47850;50.274;18.908;2022-10-16T02:06:06;98338.69;;;11.17;94.15
61898;BME280;47850;50.274;18.908;2022-10-16T02:08:50;98342.90;;;11.15;94.02
61898;BME280;47850;50.274;18.908;2022-10-16T02:11:34;98351.49;;;11.13;94.09
61898;BME280;47850;50.274;18.908;2022-10-16T02:14:18;98351.76;;;11.12;94.33
61898;BME280;47850;50.274;18.908;2022-10-16T02:17:09;98355.64;;;11.11;94.30
61898;BME280;47850;50.274;18.908;2022-10-16T02:19:54;98358.20;;;11.11;94.31
61898;BME280;47850;50.274;18.908;2022-10-16T02:22:40;98355.16;;;11.11;94.45
61898;BME280;47850;50.274;18.908;2022-10-16T02:25:31;98355.83;;;11.12;94.51
61898;BME280;47850;50.274;18.908;2022-10-16T02:28:19;98359.46;;;11.14;94.52
61898;BME280;47850;50.274;18.908;2022-10-16T02:31:07;98363.19;;;11.16;94.20
61898;BME280;47850;50.274;18.908;2022-10-16T02:33:52;98358.81;;;11.16;93.92
61898;BME280;47850;50.274;18.908;2022-10-16T02:36:38;98358.30;;;11.15;94.14
61898;BME280;47850;50.274;18.908;2022-10-16T02:39:23;98352.23;;;11.14;93.90
61898;BME280;47850;50.274;18.908;2022-10-16T02:42:14;98350.44;;;11.12;93.85
61898;BME280;47850;50.274;18.908;2022-10-16T02:44:58;98350.14;;;11.09;93.92
61898;BME280;47850;50.274;18.908;2022-10-16T02:47:43;98350.94;;;11.06;93.89
61898;BME280;47850;50.274;18.908;2022-10-16T02:50:27;98353.37;;;11.03;93.83
61898;BME280;47850;50.274;18.908;2022-10-16T02:53:11;98355.86;;;10.99;94.13
61898;BME280;47850;50.274;18.908;2022-10-16T02:55:55;98359.59;;;10.97;94.25
61898;BME280;47850;50.274;18.908;2022-10-16T02:58:40;98360.19;;;10.97;94.37
61898;BME280;47850;50.274;18.908;2022-10-16T03:01:24;98362.58;;;10.98;94.21
61898;BME280;47850;50.274;18.908;2022-10-16T03:04:08;98360.72;;;10.98;94.07
61898;BME280;47850;50.274;18.908;2022-10-16T03:06:52;98360.48;;;10.98;93.95
61898;BME280;47850;50.274;18.908;2022-10-16T03:09:36;98364.89;;;10.99;93.85
61898;BME280;47850;50.274;18.908;2022-10-16T03:12:20;98367.97;;;11.00;93.80
61898;BME280;47850;50.274;18.908;2022-10-16T03:15:05;98370.48;;;11.02;93.74
61898;BME280;47850;50.274;18.908;2022-10-16T03:17:50;98371.39;;;11.05;93.58
61898;BME280;47850;50.274;18.908;2022-10-16T03:20:34;98374.54;;;11.07;93.43
61898;BME280;47850;50.274;18.908;2022-10-16T03:23:18;98376.28;;;11.09;93.25
61898;BME280;47850;50.274;18.908;2022-10-16T03:26:02;98374.73;;;11.10;93.04
61898;BME280;47850;50.274;18.908;2022-10-16T03:28:46;98378.13;;;11.09;93.13
61898;BME280;47850;50.274;18.908;2022-10-16T03:31:30;98379.23;;;11.09;93.16
61898;BME280;47850;50.274;18.908;2022-10-16T03:34:15;98382.48;;;11.07;92.98
61898;BME280;47850;50.274;18.908;2022-10-16T03:36:58;98383.49;;;11.05;93.04
61898;BME280;47850;50.274;18.908;2022-10-16T03:39:42;98389.58;;;11.04;93.11
61898;BME280;47850;50.274;18.908;2022-10-16T03:42:26;98397.87;;;11.04;93.12
61898;BME280;47850;50.274;18.908;2022-10-16T03:45:10;98396.69;;;11.06;93.12
61898;BME280;47850;50.274;18.908;2022-10-16T03:47:55;98394.33;;;11.08;93.10
61898;BME280;47850;50.274;18.908;2022-10-16T03:50:39;98392.20;;;11.11;93.10
61898;BME280;47850;50.274;18.908;2022-10-16T03:53:23;98391.26;;;11.16;92.93
61898;BME280;47850;50.274;18.908;2022-10-16T03:56:07;98395.17;;;11.20;92.78
61898;BME280;47850;50.274;18.908;2022-10-16T03:58:51;98387.92;;;11.23;92.60
61898;BME280;47850;50.274;18.908;2022-10-16T04:01:35;98387.68;;;11.26;92.54
61898;BME280;47850;50.274;18.908;2022-10-16T04:04:03;98390.02;;;11.28;92.58
61898;BME280;47850;50.274;18.908;2022-10-16T04:06:28;98389.26;;;11.30;92.45
61898;BME280;47850;50.274;18.908;2022-10-16T04:08:54;98393.31;;;11.33;92.25
61898;BME280;47850;50.274;18.908;2022-10-16T04:11:19;98393.57;;;11.36;92.09
61898;BME280;47850;50.274;18.908;2022-10-16T04:13:44;98392.06;;;11.39;92.04
61898;BME280;47850;50.274;18.908;2022-10-16T04:16:10;98396.20;;;11.42;91.92
61898;BME280;47850;50.274;18.908;2022-10-16T04:18:35;98399.55;;;11.45;91.78
61898;BME280;47850;50.274;18.908;2022-10-16T04:21:04;98399.73;;;11.47;91.57
61898;BME280;47850;50.274;18.908;2022-10-16T04:23:30;98403.89;;;11.48;91.42
61898;BME280;47850;50.274;18.908;2022-10-16T04:25:55;98399.79;;;11.47;91.30
61898;BME280;47850;50.274;18.908;2022-10-16T04:28:20;98398.91;;;11.45;91.38
61898;BME280;47850;50.274;18.908;2022-10-16T04:30:46;98390.24;;;11.43;91.37
61898;BME280;47850;50.274;18.908;2022-10-16T04:33:11;98387.59;;;11.40;91.27
61898;BME280;47850;50.274;18.908;2022-10-16T04:35:37;98388.05;;;11.36;91.32
61898;BME280;47850;50.274;18.908;2022-10-16T04:38:03;98388.49;;;11.32;91.56
61898;BME280;47850;50.274;18.908;2022-10-16T04:40:28;98394.52;;;11.27;91.66
61898;BME280;47850;50.274;18.908;2022-10-16T04:42:53;98401.39;;;11.24;91.85
61898;BME280;47850;50.274;18.908;2022-10-16T04:45:19;98402.73;;;11.19;91.92
61898;BME280;47850;50.274;18.908;2022-10-16T04:47:44;98404.64;;;11.17;92.14
61898;BME280;47850;50.274;18.908;2022-10-16T04:50:10;98404.70;;;11.15;92.13
61898;BME280;47850;50.274;18.908;2022-10-16T04:52:35;98405.77;;;11.13;92.23
61898;BME280;47850;50.274;18.908;2022-10-16T04:55:01;98408.30;;;11.12;92.23
61898;BME280;47850;50.274;18.908;2022-10-16T04:57:27;98409.29;;;11.09;92.32
61898;BME280;47850;50.274;18.908;2022-10-16T04:59:53;98414.99;;;11.08;92.44
61898;BME280;47850;50.274;18.908;2022-10-16T05:02:18;98410.98;;;11.08;92.43
61898;BME280;47850;50.274;18.908;2022-10-16T05:04:43;98406.27;;;11.08;92.48
61898;BME280;47850;50.274;18.908;2022-10-16T05:07:09;98408.95;;;11.08;92.54
61898;BME280;47850;50.274;18.908;2022-10-16T05:09:34;98410.36;;;11.08;92.65
61898;BME280;47850;50.274;18.908;2022-10-16T05:11:59;98416.98;;;11.09;92.57
61898;BME280;47850;50.274;18.908;2022-10-16T05:14:25;98424.14;;;11.09;92.67
61898;BME280;47850;50.274;18.908;2022-10-16T05:16:50;98434.38;;;11.06;92.42
61898;BME280;47850;50.274;18.908;2022-10-16T05:19:16;98437.07;;;11.04;92.67
61898;BME280;47850;50.274;18.908;2022-10-16T05:21:42;98444.86;;;11.02;92.67
61898;BME280;47850;50.274;18.908;2022-10-16T05:24:07;98442.10;;;11.01;92.95
61898;BME280;47850;50.274;18.908;2022-10-16T05:26:35;98441.19;;;11.00;92.90
61898;BME280;47850;50.274;18.908;2022-10-16T05:29:00;98442.61;;;11.00;92.87
61898;BME280;47850;50.274;18.908;2022-10-16T05:31:25;98449.23;;;11.02;93.01
61898;BME280;47850;50.274;18.908;2022-10-16T05:33:51;98445.23;;;11.05;93.00
61898;BME280;47850;50.274;18.908;2022-10-16T05:36:16;98446.91;;;11.09;93.04
61898;BME280;47850;50.274;18.908;2022-10-16T05:38:43;98451.86;;;11.13;92.87
61898;BME280;47850;50.274;18.908;2022-10-16T05:41:08;98451.77;;;11.16;92.80
61898;BME280;47850;50.274;18.908;2022-10-16T05:43:33;98455.01;;;11.20;92.79
61898;BME280;47850;50.274;18.908;2022-10-16T05:46:00;98457.69;;;11.24;92.76
61898;BME280;47850;50.274;18.908;2022-10-16T05:48:26;98456.98;;;11.27;92.60
61898;BME280;47850;50.274;18.908;2022-10-16T05:51:02;98452.13;;;11.31;92.47
61898;BME280;47850;50.274;18.908;2022-10-16T05:53:28;98460.06;;;11.36;92.31
61898;BME280;47850;50.274;18.908;2022-10-16T05:55:54;98465.60;;;11.40;92.22
61898;BME280;47850;50.274;18.908;2022-10-16T05:58:20;98470.99;;;11.43;92.04
61898;BME280;47850;50.274;18.908;2022-10-16T06:00:52;98473.59;;;11.47;91.89
61898;BME280;47850;50.274;18.908;2022-10-16T06:03:17;98474.81;;;11.51;91.82
61898;BME280;47850;50.274;18.908;2022-10-16T06:05:43;98481.73;;;11.57;91.75
61898;BME280;47850;50.274;18.908;2022-10-16T06:08:08;98482.45;;;11.63;91.44
61898;BME280;47850;50.274;18.908;2022-10-16T06:10:33;98486.73;;;11.68;91.20
61898;BME280;47850;50.274;18.908;2022-10-16T06:12:59;98492.81;;;11.74;91.02
61898;BME280;47850;50.274;18.908;2022-10-16T06:15:24;98488.80;;;11.80;90.72
61898;BME280;47850;50.274;18.908;2022-10-16T06:17:49;98492.27;;;11.88;90.57
61898;BME280;47850;50.274;18.908;2022-10-16T06:20:15;98495.84;;;11.94;90.30
61898;BME280;47850;50.274;18.908;2022-10-16T06:22:40;98497.02;;;12.01;90.11
61898;BME280;47850;50.274;18.908;2022-10-16T06:25:05;98500.54;;;12.08;89.77
61898;BME280;47850;50.274;18.908;2022-10-16T06:27:31;98505.42;;;12.14;89.58
61898;BME280;47850;50.274;18.908;2022-10-16T06:29:56;98511.17;;;12.21;89.24
61898;BME280;47850;50.274;18.908;2022-10-16T06:32:22;98515.84;;;12.27;88.89
61898;BME280;47850;50.274;18.908;2022-10-16T06:34:48;98516.33;;;12.34;88.41
61898;BME280;47850;50.274;18.908;2022-10-16T06:37:13;98520.33;;;12.42;87.98
61898;BME280;47850;50.274;18.908;2022-10-16T06:39:38;98518.42;;;12.51;87.49
61898;BME280;47850;50.274;18.908;2022-10-16T06:42:04;98523.56;;;12.59;87.08
61898;BME280;47850;50.274;18.908;2022-10-16T06:44:29;98522.52;;;12.67;86.93
61898;BME280;47850;50.274;18.908;2022-10-16T06:46:54;98521.94;;;12.75;86.58
61898;BME280;47850;50.274;18.908;2022-10-16T06:49:20;98525.66;;;12.82;86.17
61898;BME280;47850;50.274;18.908;2022-10-16T06:51:47;98525.31;;;12.89;85.61
61898;BME280;47850;50.274;18.908;2022-10-16T06:54:14;98528.55;;;12.95;85.52
61898;BME280;47850;50.274;18.908;2022-10-16T06:56:39;98532.27;;;13.02;85.25
61898;BME280;47850;50.274;18.908;2022-10-16T06:59:05;98530.96;;;13.08;84.94
61898;BME280;47850;50.274;18.908;2022-10-16T07:01:30;98533.14;;;13.13;84.63
61898;BME280;47850;50.274;18.908;2022-10-16T07:03:56;98533.79;;;13.20;84.34
61898;BME280;47850;50.274;18.908;2022-10-16T07:06:22;98534.70;;;13.25;83.92
61898;BME280;47850;50.274;18.908;2022-10-16T07:08:48;98532.55;;;13.32;83.78
61898;BME280;47850;50.274;18.908;2022-10-16T07:11:18;98531.96;;;13.38;83.49
61898;BME280;47850;50.274;18.908;2022-10-16T07:13:44;98530.28;;;13.44;83.30
61898;BME280;47850;50.274;18.908;2022-10-16T07:16:14;98534.17;;;13.50;82.73
61898;BME280;47850;50.274;18.908;2022-10-16T07:18:40;98534.95;;;13.56;82.67
61898;BME280;47850;50.274;18.908;2022-10-16T07:21:09;98538.27;;;13.62;82.62
61898;BME280;47850;50.274;18.908;2022-10-16T07:23:34;98544.01;;;13.71;82.20
61898;BME280;47850;50.274;18.908;2022-10-16T07:26:00;98546.52;;;13.79;81.88
61898;BME280;47850;50.274;18.908;2022-10-16T07:28:26;98549.59;;;13.90;81.34
61898;BME280;47850;50.274;18.908;2022-10-16T07:30:51;98555.05;;;14.01;80.76
61898;BME280;47850;50.274;18.908;2022-10-16T07:33:16;98556.38;;;14.13;79.99
61898;BME280;47850;50.274;18.908;2022-10-16T07:35:52;98557.34;;;14.27;80.22
61898;BME280;47850;50.274;18.908;2022-10-16T07:38:18;98555.05;;;14.41;79.40
61898;BME280;47850;50.274;18.908;2022-10-16T07:40:43;98552.98;;;14.53;79.21
61898;BME280;47850;50.274;18.908;2022-10-16T07:43:08;98551.80;;;14.62;78.38
61898;BME280;47850;50.274;18.908;2022-10-16T07:45:34;98552.89;;;14.69;78.15
61898;BME280;47850;50.274;18.908;2022-10-16T07:47:59;98550.61;;;14.76;77.96
61898;BME280;47850;50.274;18.908;2022-10-16T07:50:24;98550.42;;;14.81;76.99
61898;BME280;47850;50.274;18.908;2022-10-16T07:52:50;98556.90;;;14.88;76.44
61898;BME280;47850;50.274;18.908;2022-10-16T07:55:15;98557.57;;;14.96;76.41
61898;BME280;47850;50.274;18.908;2022-10-16T07:57:40;98562.11;;;15.07;76.35
61898;BME280;47850;50.274;18.908;2022-10-16T08:00:06;98565.48;;;15.19;76.07
61898;BME280;47850;50.274;18.908;2022-10-16T08:02:32;98570.80;;;15.32;75.62
61898;BME280;47850;50.274;18.908;2022-10-16T08:04:57;98572.89;;;15.45;75.14
61898;BME280;47850;50.274;18.908;2022-10-16T08:07:22;98569.63;;;15.58;74.45
61898;BME280;47850;50.274;18.908;2022-10-16T08:09:50;98568.77;;;15.68;73.80
61898;BME280;47850;50.274;18.908;2022-10-16T08:12:17;98567.73;;;15.75;73.28
61898;BME280;47850;50.274;18.908;2022-10-16T08:14:42;98563.77;;;15.81;73.25
61898;BME280;47850;50.274;18.908;2022-10-16T08:17:07;98563.46;;;15.89;71.60
61898;BME280;47850;50.274;18.908;2022-10-16T08:19:33;98560.21;;;15.93;71.25
61898;BME280;47850;50.274;18.908;2022-10-16T08:22:00;98559.61;;;15.99;70.46
61898;BME280;47850;50.274;18.908;2022-10-16T08:24:25;98559.64;;;16.02;70.43
61898;BME280;47850;50.274;18.908;2022-10-16T08:26:53;98561.54;;;16.08;69.76
61898;BME280;47850;50.274;18.908;2022-10-16T08:29:18;98564.37;;;16.13;69.68
61898;BME280;47850;50.274;18.908;2022-10-16T08:31:44;98568.70;;;16.22;69.25
61898;BME280;47850;50.274;18.908;2022-10-16T08:34:09;98574.65;;;16.29;68.28
61898;BME280;47850;50.274;18.908;2022-10-16T08:36:34;98581.11;;;16.32;68.14
61898;BME280;47850;50.274;18.908;2022-10-16T08:39:00;98582.73;;;16.34;67.86
61898;BME280;47850;50.274;18.908;2022-10-16T08:49:18;98587.35;;;16.57;67.72
61898;BME280;47850;50.274;18.908;2022-10-16T08:51:44;98584.94;;;16.64;67.33
61898;BME280;47850;50.274;18.908;2022-10-16T08:54:15;98587.79;;;16.64;66.94
61898;BME280;47850;50.274;18.908;2022-10-16T08:56:46;98587.94;;;16.67;67.26
61898;BME280;47850;50.274;18.908;2022-10-16T08:59:11;98586.23;;;16.70;66.68
61898;BME280;47850;50.274;18.908;2022-10-16T09:01:40;98585.57;;;16.72;67.04
61898;BME280;47850;50.274;18.908;2022-10-16T09:12:05;98591.13;;;16.88;66.46
61898;BME280;47850;50.274;18.908;2022-10-16T09:19:57;98591.49;;;17.06;65.24
61898;BME280;47850;50.274;18.908;2022-10-16T09:22:25;98590.95;;;17.18;65.54
61898;BME280;47850;50.274;18.908;2022-10-16T09:24:52;98596.34;;;17.29;64.54
61898;BME280;47850;50.274;18.908;2022-10-16T09:27:18;98599.27;;;17.39;64.87
61898;BME280;47850;50.274;18.908;2022-10-16T09:29:44;98599.33;;;17.48;64.22
61898;BME280;47850;50.274;18.908;2022-10-16T09:32:14;98609.89;;;17.57;63.78
61898;BME280;47850;50.274;18.908;2022-10-16T09:34:45;98612.35;;;17.61;63.53
61898;BME280;47850;50.274;18.908;2022-10-16T09:37:13;98611.58;;;17.68;63.68
61898;BME280;47850;50.274;18.908;2022-10-16T09:39:46;98611.59;;;17.79;63.83
61898;BME280;47850;50.274;18.908;2022-10-16T09:44:46;98610.06;;;18.03;62.75
61898;BME280;47850;50.274;18.908;2022-10-16T09:47:14;98611.68;;;18.08;62.42
61898;BME280;47850;50.274;18.908;2022-10-16T09:49:49;98613.64;;;18.17;62.82
61898;BME280;47850;50.274;18.908;2022-10-16T09:52:15;98616.77;;;18.31;61.95
61898;BME280;47850;50.274;18.908;2022-10-16T09:54:52;98613.92;;;18.45;62.08
61898;BME280;47850;50.274;18.908;2022-10-16T09:57:17;98613.91;;;18.63;61.24
61898;BME280;47850;50.274;18.908;2022-10-16T09:59:53;98607.29;;;18.75;60.44
61898;BME280;47850;50.274;18.908;2022-10-16T10:02:40;98609.99;;;18.87;61.05
61898;BME280;47850;50.274;18.908;2022-10-16T10:05:04;98618.17;;;19.05;60.11
61898;BME280;47850;50.274;18.908;2022-10-16T10:07:32;98618.80;;;19.09;59.48
61898;BME280;47850;50.274;18.908;2022-10-16T10:09:59;98618.10;;;19.13;59.26
61898;BME280;47850;50.274;18.908;2022-10-16T10:12:28;98621.80;;;19.17;59.37
61898;BME280;47850;50.274;18.908;2022-10-16T10:14:57;98625.47;;;19.23;58.88
61898;BME280;47850;50.274;18.908;2022-10-16T10:17:23;98631.27;;;19.24;58.56
61898;BME280;47850;50.274;18.908;2022-10-16T10:19:53;98623.78;;;19.21;58.16
61898;BME280;47850;50.274;18.908;2022-10-16T10:22:39;98627.13;;;19.15;58.21
61898;BME280;47850;50.274;18.908;2022-10-16T10:33:09;98626.63;;;19.10;58.83
61898;BME280;47850;50.274;18.908;2022-10-16T10:35:48;98627.08;;;19.00;58.75
61898;BME280;47850;50.274;18.908;2022-10-16T10:44:01;98624.64;;;18.71;60.48
61898;BME280;47850;50.274;18.908;2022-10-16T10:49:10;98611.31;;;18.59;60.84
61898;BME280;47850;50.274;18.908;2022-10-16T10:56:39;98610.59;;;18.70;60.74
61898;BME280;47850;50.274;18.908;2022-10-16T11:01:50;98609.67;;;18.80;60.91
61898;BME280;47850;50.274;18.908;2022-10-16T11:07:04;98612.42;;;18.90;60.85
61898;BME280;47850;50.274;18.908;2022-10-16T11:09:34;98615.09;;;19.00;61.02
61898;BME280;47850;50.274;18.908;2022-10-16T11:12:21;98614.55;;;19.14;60.89
61898;BME280;47850;50.274;18.908;2022-10-16T11:17:19;98615.53;;;19.55;60.11
61898;BME280;47850;50.274;18.908;2022-10-16T11:19:48;98617.54;;;19.71;60.10
61898;BME280;47850;50.274;18.908;2022-10-16T11:24:45;98625.83;;;19.88;58.96
61898;BME280;47850;50.274;18.908;2022-10-16T11:27:14;98622.98;;;19.94;58.56
61898;BME280;47850;50.274;18.908;2022-10-16T11:29:55;98621.04;;;20.06;58.19
61898;BME280;47850;50.274;18.908;2022-10-16T11:32:32;98621.61;;;20.07;57.42
61898;BME280;47850;50.274;18.908;2022-10-16T11:35:04;98620.63;;;20.10;58.32
61898;BME280;47850;50.274;18.908;2022-10-16T11:37:35;98624.59;;;20.33;57.99
61898;BME280;47850;50.274;18.908;2022-10-16T11:40:45;98624.50;;;20.61;57.69
61898;BME280;47850;50.274;18.908;2022-10-16T11:42:53;98618.17;;;21.05;57.22
61898;BME280;47850;50.274;18.908;2022-10-16T11:48:32;98619.17;;;21.40;55.71
61898;BME280;47850;50.274;18.908;2022-10-16T11:55:44;98615.58;;;21.79;53.98
61898;BME280;47850;50.274;18.908;2022-10-16T11:58:21;98616.15;;;22.25;53.32
61898;BME280;47850;50.274;18.908;2022-10-16T12:08:11;98629.88;;;22.60;50.77
61898;BME280;47850;50.274;18.908;2022-10-16T12:10:38;98633.80;;;22.53;51.49
61898;BME280;47850;50.274;18.908;2022-10-16T12:13:04;98638.68;;;22.75;50.89
61898;BME280;47850;50.274;18.908;2022-10-16T12:15:31;98639.58;;;23.20;50.07
61898;BME280;47850;50.274;18.908;2022-10-16T12:17:57;98641.70;;;23.83;49.21
61898;BME280;47850;50.274;18.908;2022-10-16T12:25:20;98641.71;;;26.23;44.25
61898;BME280;47850;50.274;18.908;2022-10-16T12:27:53;98637.25;;;26.68;42.06
61898;BME280;47850;50.274;18.908;2022-10-16T12:30:20;98643.27;;;26.41;40.89
61898;BME280;47850;50.274;18.908;2022-10-16T12:32:52;98640.98;;;25.51;41.67
61898;BME280;47850;50.274;18.908;2022-10-16T12:35:22;98639.95;;;24.59;43.98
61898;BME280;47850;50.274;18.908;2022-10-16T12:37:48;98641.30;;;24.10;45.31
61898;BME280;47850;50.274;18.908;2022-10-16T12:40:30;98641.11;;;23.72;46.34
61898;BME280;47850;50.274;18.908;2022-10-16T12:42:57;98635.75;;;23.18;46.43
61898;BME280;47850;50.274;18.908;2022-10-16T12:45:24;98639.69;;;22.69;47.83
61898;BME280;47850;50.274;18.908;2022-10-16T12:47:51;98642.27;;;22.23;48.99
61898;BME280;47850;50.274;18.908;2022-10-16T12:52:53;98643.42;;;21.55;51.70
61898;BME280;47850;50.274;18.908;2022-10-16T12:55:19;98645.25;;;21.32;52.35
61898;BME280;47850;50.274;18.908;2022-10-16T13:05:32;98648.29;;;21.13;54.11
61898;BME280;47850;50.274;18.908;2022-10-16T13:26:48;98658.30;;;23.73;47.63
61898;BME280;47850;50.274;18.908;2022-10-16T13:29:15;98656.47;;;23.31;48.21
61898;BME280;47850;50.274;18.908;2022-10-16T13:31:41;98654.48;;;23.09;48.73
61898;BME280;47850;50.274;18.908;2022-10-16T13:34:11;98653.61;;;22.71;49.76
61898;BME280;47850;50.274;18.908;2022-10-16T13:36:44;98658.32;;;22.39;49.99
61898;BME280;47850;50.274;18.908;2022-10-16T13:41:36;98652.48;;;21.93;50.20
61898;BME280;47850;50.274;18.908;2022-10-16T13:44:01;98643.45;;;23.08;47.58
61898;BME280;47850;50.274;18.908;2022-10-16T13:46:27;98643.05;;;24.93;43.89
61898;BME280;47850;50.274;18.908;2022-10-16T13:48:59;98638.92;;;26.29;40.52
61898;BME280;47850;50.274;18.908;2022-10-16T13:51:24;98635.23;;;26.85;38.54
61898;BME280;47850;50.274;18.908;2022-10-16T13:53:50;98634.48;;;26.00;39.62
61898;BME280;47850;50.274;18.908;2022-10-16T13:56:16;98630.67;;;25.08;41.61
61898;BME280;47850;50.274;18.908;2022-10-16T13:58:42;98633.28;;;24.76;41.88
61898;BME280;47850;50.274;18.908;2022-10-16T14:03:42;98636.36;;;25.21;40.90
61898;BME280;47850;50.274;18.908;2022-10-16T14:06:19;98645.48;;;25.29;41.39
61898;BME280;47850;50.274;18.908;2022-10-16T14:08:51;98639.32;;;26.13;40.06
61898;BME280;47850;50.274;18.908;2022-10-16T14:11:23;98646.27;;;27.04;38.00
61898;BME280;47850;50.274;18.908;2022-10-16T14:13:51;98651.09;;;27.83;36.94
61898;BME280;47850;50.274;18.908;2022-10-16T14:16:18;98664.83;;;28.57;35.74
61898;BME280;47850;50.274;18.908;2022-10-16T14:18:55;98667.81;;;29.25;34.63
61898;BME280;47850;50.274;18.908;2022-10-16T14:21:21;98670.33;;;29.85;33.97
61898;BME280;47850;50.274;18.908;2022-10-16T14:23:46;98665.99;;;30.59;33.25
61898;BME280;47850;50.274;18.908;2022-10-16T14:26:12;98667.23;;;31.27;32.71
61898;BME280;47850;50.274;18.908;2022-10-16T14:28:39;98664.71;;;31.95;31.69
61898;BME280;47850;50.274;18.908;2022-10-16T14:34:02;98664.98;;;32.11;29.08
61898;BME280;47850;50.274;18.908;2022-10-16T14:36:27;98668.12;;;31.59;30.13
61898;BME280;47850;50.274;18.908;2022-10-16T14:41:25;98665.70;;;31.18;30.57
61898;BME280;47850;50.274;18.908;2022-10-16T14:43:52;98659.55;;;30.91;30.35
61898;BME280;47850;50.274;18.908;2022-10-16T14:46:22;98655.95;;;30.74;30.59
61898;BME280;47850;50.274;18.908;2022-10-16T14:48:56;98657.23;;;30.56;30.52
61898;BME280;47850;50.274;18.908;2022-10-16T14:51:23;98662.70;;;30.25;30.60
61898;BME280;47850;50.274;18.908;2022-10-16T14:53:48;98673.09;;;29.29;31.37
61898;BME280;47850;50.274;18.908;2022-10-16T14:56:15;98673.13;;;28.49;32.69
61898;BME280;47850;50.274;18.908;2022-10-16T14:58:42;98678.99;;;27.52;34.18
61898;BME280;47850;50.274;18.908;2022-10-16T15:01:08;98685.12;;;27.18;35.17
61898;BME280;47850;50.274;18.908;2022-10-16T15:03:36;98686.80;;;26.97;35.81
61898;BME280;47850;50.274;18.908;2022-10-16T15:06:01;98682.30;;;26.31;37.00
61898;BME280;47850;50.274;18.908;2022-10-16T15:08:26;98674.50;;;25.85;37.45
61898;BME280;47850;50.274;18.908;2022-10-16T15:10:52;98673.73;;;25.46;38.23
61898;BME280;47850;50.274;18.908;2022-10-16T15:13:17;98675.38;;;24.57;39.57
61898;BME280;47850;50.274;18.908;2022-10-16T15:15:44;98679.92;;;23.69;41.54
61898;BME280;47850;50.274;18.908;2022-10-16T15:18:09;98681.85;;;22.86;43.32
61898;BME280;47850;50.274;18.908;2022-10-16T15:20:36;98682.08;;;22.20;44.89
61898;BME280;47850;50.274;18.908;2022-10-16T15:23:02;98685.33;;;21.66;46.53
61898;BME280;47850;50.274;18.908;2022-10-16T15:25:39;98686.76;;;21.17;47.62
61898;BME280;47850;50.274;18.908;2022-10-16T15:28:06;98691.11;;;20.79;48.99
61898;BME280;47850;50.274;18.908;2022-10-16T15:30:33;98695.91;;;20.50;49.91
61898;BME280;47850;50.274;18.908;2022-10-16T15:32:59;98697.18;;;20.20;51.03